Time;durP1;ratioP1;P1;durP2;ratioP2;P2;SDS_P1;SDS_P2;PMS_P1;PMS_P2;Temp;Humidity;BMP_temperature;BMP_pressure;BME280_temperature;BME280_humidity;BME280_pressure;Samples;Min_cycle;Max_cycle;Signal;HPM_P1;HPM_P2
2024/01/03 00:00:08;;;;;;;7.07;0.53;;;9.70;99.90;;;;;;4957558;28;20485;-66
2024/01/03 00:02:37;;;;;;;6.50;0.50;;;9.70;99.90;;;;;;4961865;28;20473;-68
2024/01/03 00:05:09;;;;;;;6.20;0.50;;;9.60;99.90;;;;;;4959253;28;20454;-67
2024/01/03 00:07:37;;;;;;;6.20;0.57;;;9.60;99.90;;;;;;4950948;28;20541;-67
2024/01/03 00:10:18;;;;;;;7.50;0.40;;;9.70;99.90;;;;;;4950085;28;21187;-67
2024/01/03 00:12:46;;;;;;;5.70;0.40;;;9.70;99.90;;;;;;4965374;28;20488;-67
2024/01/03 00:16:07;;;;;;;5.87;0.43;;;9.80;99.90;;;;;;4963851;28;20486;-67
2024/01/03 00:18:36;;;;;;;6.00;0.40;;;9.80;99.90;;;;;;4965379;28;20860;-67
2024/01/03 00:21:08;;;;;;;5.87;0.40;;;9.70;99.90;;;;;;4964523;28;20459;-67
2024/01/03 00:23:38;;;;;;;6.10;0.57;;;9.70;99.90;;;;;;4958170;28;20984;-67
2024/01/03 00:26:10;;;;;;;6.10;0.50;;;9.70;99.90;;;;;;4948328;28;20498;-66
2024/01/03 00:28:38;;;;;;;6.20;0.60;;;9.70;99.90;;;;;;4952182;28;20545;-67
2024/01/03 00:31:06;;;;;;;6.87;0.50;;;9.70;99.90;;;;;;4961711;28;20453;-67
2024/01/03 00:33:42;;;;;;;6.67;0.60;;;9.60;99.90;;;;;;4964848;28;20469;-67
2024/01/03 00:36:13;;;;;;;5.87;0.47;;;9.60;99.90;;;;;;4964838;28;20500;-67
2024/01/03 00:38:42;;;;;;;6.00;0.40;;;9.70;99.90;;;;;;4964862;28;20870;-67
2024/01/03 00:41:12;;;;;;;6.17;0.60;;;9.80;99.90;;;;;;4964188;28;20475;-67
2024/01/03 00:43:40;;;;;;;6.10;0.53;;;9.80;99.90;;;;;;4961323;28;20459;-67
2024/01/03 00:46:09;;;;;;;8.67;0.80;;;9.80;99.90;;;;;;4964499;28;20482;-67
2024/01/03 00:48:37;;;;;;;7.00;0.60;;;9.80;99.90;;;;;;4964626;28;21026;-68
2024/01/03 00:51:06;;;;;;;6.37;0.70;;;9.90;99.90;;;;;;4964486;28;20505;-67
2024/01/03 00:53:35;;;;;;;7.03;0.70;;;9.90;99.90;;;;;;4964860;28;20450;-66
2024/01/03 00:56:04;;;;;;;6.20;0.63;;;10.10;99.90;;;;;;4967015;28;20495;-67
2024/01/03 00:58:34;;;;;;;8.60;0.90;;;10.10;99.90;;;;;;4977475;28;20515;-67
2024/01/03 01:01:03;;;;;;;7.10;0.90;;;10.20;99.90;;;;;;4974328;28;20452;-67
2024/01/03 01:03:31;;;;;;;6.83;0.80;;;10.20;99.90;;;;;;4956309;28;20940;-67
2024/01/03 01:05:59;;;;;;;7.07;0.80;;;10.40;99.90;;;;;;4961252;28;20835;-67
2024/01/03 01:08:27;;;;;;;8.50;0.90;;;10.50;99.90;;;;;;4973626;28;20972;-67
2024/01/03 01:10:57;;;;;;;5.83;0.63;;;10.60;99.90;;;;;;4964576;28;20455;-67
2024/01/03 01:13:25;;;;;;;6.57;0.77;;;10.50;99.90;;;;;;4965040;28;20557;-67
2024/01/03 01:15:53;;;;;;;6.57;0.60;;;10.50;99.90;;;;;;4962865;28;20479;-67
2024/01/03 01:18:21;;;;;;;6.50;0.80;;;10.60;99.90;;;;;;4964939;28;20467;-67
2024/01/03 01:20:49;;;;;;;6.93;0.70;;;10.50;99.90;;;;;;4964700;28;20827;-67
2024/01/03 01:23:18;;;;;;;6.27;0.40;;;10.50;99.90;;;;;;4964635;28;20461;-67
2024/01/03 01:25:46;;;;;;;7.50;0.83;;;10.40;99.90;;;;;;4962491;28;20949;-67
2024/01/03 01:28:15;;;;;;;6.00;0.67;;;10.40;99.90;;;;;;4965016;28;20528;-67
2024/01/03 01:30:43;;;;;;;6.67;0.60;;;10.30;99.90;;;;;;4973792;28;20455;-67
2024/01/03 01:33:11;;;;;;;7.60;0.53;;;10.30;99.90;;;;;;4975658;28;20575;-67
2024/01/03 01:35:40;;;;;;;7.20;0.57;;;10.30;99.90;;;;;;4967873;28;20483;-66
2024/01/03 01:38:08;;;;;;;7.33;0.70;;;10.30;99.90;;;;;;4967536;28;20505;-67
2024/01/03 01:40:36;;;;;;;6.20;0.80;;;10.20;99.90;;;;;;4966478;28;20454;-68
2024/01/03 01:43:04;;;;;;;6.37;0.70;;;10.20;99.90;;;;;;4976913;28;20985;-67
2024/01/03 01:45:33;;;;;;;7.30;0.70;;;10.20;99.90;;;;;;4967443;28;20458;-67
2024/01/03 01:48:02;;;;;;;6.57;0.77;;;10.20;99.90;;;;;;4968068;28;20542;-66
2024/01/03 01:50:31;;;;;;;7.47;0.70;;;10.10;99.90;;;;;;4970200;28;20460;-66
2024/01/03 01:52:59;;;;;;;6.40;0.60;;;10.10;99.90;;;;;;4969994;28;21019;-66
2024/01/03 01:55:27;;;;;;;7.97;0.93;;;10.10;99.90;;;;;;4967932;28;20482;-67
2024/01/03 01:57:56;;;;;;;7.53;0.80;;;10.10;99.90;;;;;;4964551;28;20457;-67
2024/01/03 02:00:24;;;;;;;7.70;0.80;;;10.10;99.90;;;;;;4969974;28;20964;-66
2024/01/03 02:02:53;;;;;;;5.80;0.50;;;9.90;99.90;;;;;;4975044;28;20571;-68
2024/01/03 02:05:21;;;;;;;6.17;0.57;;;9.80;99.90;;;;;;4986197;28;20802;-69
2024/01/03 02:07:50;;;;;;;8.07;0.97;;;9.70;99.90;;;;;;4977496;28;20461;-67
2024/01/03 02:10:18;;;;;;;8.73;1.47;;;9.70;99.90;;;;;;4971170;28;20454;-67
2024/01/03 02:12:46;;;;;;;7.10;0.60;;;9.70;99.90;;;;;;4969610;28;21251;-66
2024/01/03 02:15:14;;;;;;;7.27;0.80;;;9.60;99.90;;;;;;4967064;28;20996;-66
2024/01/03 02:17:43;;;;;;;8.03;0.60;;;9.40;99.90;;;;;;4987787;28;20539;-67
2024/01/03 02:20:14;;;;;;;6.33;0.67;;;9.40;99.90;;;;;;4964455;28;20467;-66
2024/01/03 02:22:44;;;;;;;7.10;0.60;;;9.40;99.90;;;;;;4961921;28;20478;-67
2024/01/03 02:25:12;;;;;;;6.10;0.60;;;9.50;99.90;;;;;;4976854;28;20462;-66
2024/01/03 02:27:40;;;;;;;6.53;0.70;;;9.60;99.90;;;;;;4984167;28;20476;-66
2024/01/03 02:30:08;;;;;;;6.53;0.73;;;9.50;99.90;;;;;;4969617;28;20461;-66
2024/01/03 02:32:37;;;;;;;5.80;0.40;;;9.50;99.90;;;;;;4962505;28;20486;-66
2024/01/03 02:35:06;;;;;;;6.70;0.50;;;9.60;99.90;;;;;;4969569;28;20926;-67
2024/01/03 02:37:34;;;;;;;6.33;0.50;;;9.60;99.90;;;;;;4961229;28;20492;-67
2024/01/03 02:40:04;;;;;;;6.00;0.50;;;9.60;99.90;;;;;;4958473;28;20478;-66
2024/01/03 02:42:32;;;;;;;5.90;0.50;;;9.50;99.90;;;;;;4960536;28;21088;-66
2024/01/03 02:45:00;;;;;;;6.30;0.60;;;9.50;99.90;;;;;;4976434;28;20450;-67
2024/01/03 02:47:28;;;;;;;6.40;0.63;;;9.40;99.90;;;;;;4969453;28;20806;-67
2024/01/03 02:49:58;;;;;;;5.90;0.40;;;9.50;99.90;;;;;;4988220;28;20483;-67
2024/01/03 02:52:26;;;;;;;6.27;0.40;;;9.60;99.90;;;;;;4979092;28;20473;-67
2024/01/03 02:54:55;;;;;;;5.63;0.30;;;9.60;99.90;;;;;;4968165;28;20489;-67
2024/01/03 02:57:25;;;;;;;6.57;0.50;;;9.60;99.90;;;;;;4984070;28;20505;-67
2024/01/03 02:59:52;;;;;;;6.10;0.30;;;9.60;99.90;;;;;;4969176;28;20478;-66
2024/01/03 03:02:20;;;;;;;5.93;0.40;;;9.60;99.90;;;;;;4968687;28;20984;-67
2024/01/03 03:04:48;;;;;;;6.57;0.40;;;9.60;99.90;;;;;;4969301;28;20442;-67
2024/01/03 03:07:16;;;;;;;5.60;0.30;;;9.60;99.90;;;;;;4968800;28;20982;-67
2024/01/03 03:09:44;;;;;;;7.50;0.37;;;9.50;99.90;;;;;;4967014;28;20450;-66
2024/01/03 03:12:13;;;;;;;6.03;0.30;;;9.50;99.90;;;;;;4959944;28;21151;-67
2024/01/03 03:14:43;;;;;;;6.57;0.40;;;9.40;99.90;;;;;;4963340;28;20451;-67
2024/01/03 03:17:11;;;;;;;5.67;0.40;;;9.40;99.90;;;;;;4965742;28;20907;-67
2024/01/03 03:19:38;;;;;;;5.90;0.40;;;9.30;99.90;;;;;;4985035;28;20950;-67
2024/01/03 03:22:06;;;;;;;6.20;0.30;;;9.20;99.90;;;;;;4987303;28;20456;-66
2024/01/03 03:24:34;;;;;;;5.67;0.30;;;9.20;99.90;;;;;;4975182;28;20450;-67
2024/01/03 03:27:01;;;;;;;6.00;0.30;;;9.20;99.90;;;;;;4971634;28;20445;-67
2024/01/03 03:29:29;;;;;;;5.63;0.30;;;9.10;99.90;;;;;;4983708;28;20520;-67
2024/01/03 03:31:59;;;;;;;5.70;0.37;;;9.00;99.90;;;;;;4961487;28;20503;-68
2024/01/03 03:34:27;;;;;;;5.80;0.30;;;8.80;99.90;;;;;;4968489;28;20492;-68
2024/01/03 03:36:55;;;;;;;5.93;0.50;;;8.80;99.90;;;;;;4966937;28;20480;-67
2024/01/03 03:39:22;;;;;;;6.60;0.70;;;8.70;99.90;;;;;;4964746;28;20531;-68
2024/01/03 03:41:50;;;;;;;6.10;0.60;;;8.60;99.90;;;;;;4961128;28;20870;-67
2024/01/03 03:44:18;;;;;;;5.80;0.47;;;8.50;99.90;;;;;;4957034;28;20943;-67
2024/01/03 03:46:46;;;;;;;6.43;0.50;;;8.60;99.90;;;;;;4960219;28;20467;-67
2024/01/03 03:49:16;;;;;;;5.90;0.40;;;8.50;99.90;;;;;;4962005;28;20466;-67
2024/01/03 03:51:44;;;;;;;6.30;0.60;;;8.50;99.90;;;;;;4962907;28;20484;-67
2024/01/03 03:54:11;;;;;;;5.90;0.47;;;8.40;99.90;;;;;;4963049;28;20475;-67
2024/01/03 03:56:39;;;;;;;6.07;0.50;;;8.40;99.90;;;;;;4967100;28;21052;-67
2024/01/03 03:59:08;;;;;;;5.80;0.33;;;8.30;99.90;;;;;;4968195;28;20554;-67
2024/01/03 04:01:36;;;;;;;6.70;0.60;;;8.20;99.90;;;;;;4969931;28;20564;-67
2024/01/03 04:04:04;;;;;;;6.87;0.60;;;8.10;99.90;;;;;;4963834;28;20491;-67
2024/01/03 04:06:33;;;;;;;6.67;0.63;;;8.20;99.90;;;;;;4956712;28;20456;-67
2024/01/03 04:09:01;;;;;;;6.00;0.40;;;8.30;99.90;;;;;;4957972;28;21238;-65
2024/01/03 04:11:29;;;;;;;6.50;0.60;;;8.30;99.90;;;;;;4963452;28;20476;-68
2024/01/03 04:13:57;;;;;;;7.03;0.60;;;8.30;99.90;;;;;;4964063;28;20482;-67
2024/01/03 04:16:25;;;;;;;6.30;0.60;;;8.40;99.90;;;;;;4965826;28;20961;-67
2024/01/03 04:18:53;;;;;;;6.40;0.63;;;8.40;99.90;;;;;;4965372;28;20504;-67
2024/01/03 04:21:21;;;;;;;6.37;0.53;;;8.40;99.90;;;;;;4963047;28;20528;-67
2024/01/03 04:23:50;;;;;;;6.20;0.50;;;8.40;99.90;;;;;;4960753;28;20466;-67
2024/01/03 04:26:18;;;;;;;7.67;0.90;;;8.50;99.90;;;;;;4965529;28;20535;-67
2024/01/03 04:28:46;;;;;;;6.73;0.80;;;8.60;99.90;;;;;;4967350;28;20531;-67
2024/01/03 04:31:14;;;;;;;7.40;0.87;;;8.80;99.90;;;;;;4960046;28;20476;-66
2024/01/03 04:33:42;;;;;;;6.50;0.60;;;9.00;99.90;;;;;;4958568;28;21036;-67
2024/01/03 04:36:11;;;;;;;5.90;0.50;;;9.00;99.90;;;;;;4964089;28;20449;-68
2024/01/03 04:38:39;;;;;;;8.00;0.60;;;8.90;99.90;;;;;;4960685;28;20483;-67
2024/01/03 04:41:08;;;;;;;8.23;1.00;;;8.80;99.90;;;;;;4970237;28;20517;-67
2024/01/03 04:43:36;;;;;;;6.40;0.70;;;8.70;99.90;;;;;;4959660;28;20523;-67
2024/01/03 04:46:04;;;;;;;6.67;0.67;;;8.80;99.90;;;;;;4956847;28;20468;-67
2024/01/03 04:48:32;;;;;;;6.40;0.80;;;8.80;99.90;;;;;;4964407;28;20535;-67
2024/01/03 04:51:00;;;;;;;6.97;1.00;;;8.90;99.90;;;;;;4959294;28;20959;-67
2024/01/03 04:53:28;;;;;;;7.57;0.73;;;9.20;99.90;;;;;;4964923;28;20976;-67
2024/01/03 04:55:56;;;;;;;7.40;0.60;;;9.40;99.90;;;;;;4960639;28;20467;-67
2024/01/03 04:58:26;;;;;;;6.87;0.73;;;9.60;99.90;;;;;;4966995;28;20529;-68
2024/01/03 05:00:53;;;;;;;9.60;0.87;;;9.70;99.90;;;;;;4954803;28;20460;-67
2024/01/03 05:03:22;;;;;;;7.30;0.70;;;9.80;99.90;;;;;;4967643;28;20477;-67
2024/01/03 05:05:50;;;;;;;7.80;1.03;;;9.80;99.90;;;;;;4961855;28;20472;-67
2024/01/03 05:08:18;;;;;;;10.63;1.30;;;9.80;99.90;;;;;;4960753;28;20500;-67
2024/01/03 05:10:46;;;;;;;10.90;1.50;;;9.70;99.90;;;;;;4965267;28;20528;-67
2024/01/03 05:13:14;;;;;;;7.60;0.80;;;9.60;99.90;;;;;;4970615;28;20476;-67
2024/01/03 05:15:44;;;;;;;7.60;1.00;;;9.60;99.90;;;;;;4965223;28;21098;-67
2024/01/03 05:18:12;;;;;;;9.20;1.03;;;9.50;99.90;;;;;;4969581;28;20493;-66
2024/01/03 05:20:40;;;;;;;8.07;1.00;;;9.40;99.90;;;;;;4958723;28;20835;-66
2024/01/03 05:23:08;;;;;;;8.77;0.93;;;9.30;99.90;;;;;;4960612;28;20467;-67
2024/01/03 05:25:36;;;;;;;7.60;1.23;;;9.30;99.90;;;;;;4966185;28;20544;-67
2024/01/03 05:28:05;;;;;;;7.33;0.80;;;9.20;99.90;;;;;;4966783;28;20457;-67
2024/01/03 05:30:33;;;;;;;6.83;0.90;;;9.30;99.90;;;;;;4969433;28;20473;-67
2024/01/03 05:33:02;;;;;;;7.40;0.87;;;9.40;99.90;;;;;;4967673;28;20481;-67
2024/01/03 05:35:30;;;;;;;7.20;1.10;;;9.40;99.90;;;;;;4965363;28;20454;-67
2024/01/03 05:37:58;;;;;;;8.00;1.30;;;9.40;99.90;;;;;;4963874;28;20489;-68
2024/01/03 05:40:26;;;;;;;8.37;0.90;;;9.50;99.90;;;;;;4964030;28;20474;-67
2024/01/03 05:42:54;;;;;;;8.10;1.10;;;9.40;99.90;;;;;;4965226;28;20465;-67
2024/01/03 05:45:22;;;;;;;8.70;0.87;;;9.40;99.90;;;;;;4971291;28;20462;-67
2024/01/03 05:47:50;;;;;;;9.40;1.20;;;9.40;99.90;;;;;;4970437;28;20465;-67
2024/01/03 05:50:20;;;;;;;7.67;1.10;;;9.40;99.90;;;;;;4966496;28;20978;-67
2024/01/03 05:52:48;;;;;;;9.00;1.07;;;9.60;99.90;;;;;;4970823;28;20474;-67
2024/01/03 05:55:16;;;;;;;8.40;1.20;;;9.60;99.90;;;;;;4963945;28;20475;-66
2024/01/03 05:57:44;;;;;;;7.67;0.70;;;9.60;99.90;;;;;;4956141;28;20504;-67
2024/01/03 06:00:15;;;;;;;7.07;0.83;;;9.60;99.90;;;;;;4957293;28;21204;-66
2024/01/03 06:02:43;;;;;;;7.53;1.13;;;9.60;99.90;;;;;;4970933;28;20502;-67
2024/01/03 06:05:16;;;;;;;10.50;1.00;;;9.80;99.90;;;;;;4958552;28;21676;-67
2024/01/03 06:07:46;;;;;;;10.30;2.50;;;9.90;99.90;;;;;;4967791;28;20467;-67
2024/01/03 06:10:14;;;;;;;8.73;1.10;;;9.80;99.90;;;;;;4961872;28;20458;-67
2024/01/03 06:12:42;;;;;;;6.60;0.80;;;9.80;99.90;;;;;;4960018;28;20475;-67
2024/01/03 06:15:10;;;;;;;9.40;1.97;;;9.90;99.90;;;;;;4963853;28;20602;-67
2024/01/03 06:17:38;;;;;;;7.03;0.90;;;9.80;99.90;;;;;;4962667;28;20467;-67
2024/01/03 06:20:08;;;;;;;7.20;0.83;;;9.90;99.90;;;;;;4976168;28;20496;-67
2024/01/03 06:22:36;;;;;;;6.90;0.73;;;9.90;99.90;;;;;;4983016;28;20553;-67
2024/01/03 06:25:05;;;;;;;8.93;0.90;;;9.90;99.90;;;;;;4978177;28;20452;-67
2024/01/03 06:27:34;;;;;;;7.20;1.17;;;9.90;99.90;;;;;;4978284;28;20489;-67
2024/01/03 06:30:01;;;;;;;8.37;0.90;;;9.80;99.90;;;;;;4989573;28;21027;-67
2024/01/03 06:32:30;;;;;;;8.10;0.87;;;9.90;99.90;;;;;;4969765;28;20537;-67
2024/01/03 06:34:58;;;;;;;5.83;0.67;;;9.90;99.90;;;;;;4965408;28;20549;-68
2024/01/03 06:37:25;;;;;;;8.00;0.83;;;10.00;99.90;;;;;;4957842;28;20518;-67
2024/01/03 06:39:53;;;;;;;7.77;0.60;;;9.90;99.90;;;;;;4964008;28;20484;-67
2024/01/03 06:42:23;;;;;;;6.93;0.70;;;9.80;99.90;;;;;;4967507;28;20482;-67
2024/01/03 06:44:51;;;;;;;6.37;0.53;;;10.00;99.90;;;;;;4968227;28;20562;-67
2024/01/03 06:47:19;;;;;;;7.93;0.80;;;9.90;99.90;;;;;;4966315;28;20461;-68
2024/01/03 06:49:47;;;;;;;6.80;0.70;;;9.70;99.90;;;;;;4964016;28;21314;-67
2024/01/03 06:52:15;;;;;;;7.20;0.80;;;9.60;99.90;;;;;;4958192;28;20527;-67
2024/01/03 06:54:42;;;;;;;7.00;1.10;;;9.40;99.90;;;;;;4957984;28;20542;-68
2024/01/03 06:57:10;;;;;;;7.90;0.67;;;9.30;99.90;;;;;;4987629;28;20451;-68
2024/01/03 06:59:40;;;;;;;8.20;1.00;;;9.10;99.90;;;;;;4977029;28;20474;-67
2024/01/03 07:02:08;;;;;;;9.00;1.57;;;9.00;99.90;;;;;;4987917;28;20476;-68
2024/01/03 07:04:36;;;;;;;7.97;1.07;;;8.90;99.90;;;;;;4988266;28;20456;-67
2024/01/03 07:07:04;;;;;;;10.43;1.20;;;8.90;99.90;;;;;;4965741;28;20483;-67
2024/01/03 07:09:32;;;;;;;7.33;0.80;;;8.90;99.90;;;;;;4974733;28;20540;-67
2024/01/03 07:12:01;;;;;;;7.07;0.80;;;8.80;99.90;;;;;;4962335;28;20487;-67
2024/01/03 07:14:29;;;;;;;6.57;0.70;;;8.90;99.90;;;;;;4967022;28;20514;-68
2024/01/03 07:16:58;;;;;;;6.63;1.10;;;8.80;99.90;;;;;;4970703;28;20465;-68
2024/01/03 07:19:26;;;;;;;9.00;0.83;;;8.70;99.90;;;;;;4970426;28;20496;-67
2024/01/03 07:21:54;;;;;;;6.97;1.00;;;8.80;99.90;;;;;;4967577;28;20506;-66
2024/01/03 07:24:23;;;;;;;7.53;0.90;;;8.90;99.90;;;;;;4970665;28;20456;-67
2024/01/03 07:26:51;;;;;;;6.53;0.53;;;9.00;99.90;;;;;;4968130;28;20472;-66
2024/01/03 07:29:19;;;;;;;7.37;1.20;;;9.10;99.90;;;;;;4965448;28;20446;-67
2024/01/03 07:31:47;;;;;;;8.30;0.83;;;9.10;99.90;;;;;;4969947;28;20550;-67
2024/01/03 07:34:17;;;;;;;7.87;0.80;;;9.10;99.90;;;;;;4970069;28;20473;-67
2024/01/03 07:36:45;;;;;;;6.90;1.07;;;9.20;99.90;;;;;;4961671;28;20463;-67
2024/01/03 07:39:13;;;;;;;6.70;0.83;;;9.20;99.90;;;;;;4967973;28;20490;-67
2024/01/03 07:41:44;;;;;;;6.70;0.93;;;9.10;99.90;;;;;;4970212;28;20972;-67
2024/01/03 07:44:12;;;;;;;6.53;0.80;;;9.10;99.90;;;;;;4965525;28;20459;-67
2024/01/03 07:46:40;;;;;;;6.57;0.70;;;9.20;99.90;;;;;;4960024;28;20530;-67
2024/01/03 07:49:08;;;;;;;8.30;0.90;;;9.30;99.90;;;;;;4970344;28;20447;-67
2024/01/03 07:51:38;;;;;;;7.90;0.90;;;9.40;99.90;;;;;;4969977;28;20497;-67
2024/01/03 07:54:09;;;;;;;8.97;0.90;;;9.40;99.90;;;;;;4962022;28;20463;-67
2024/01/03 07:56:37;;;;;;;7.80;1.13;;;9.40;99.90;;;;;;4969125;28;20475;-67
2024/01/03 07:59:05;;;;;;;9.23;1.23;;;9.40;99.90;;;;;;4965178;28;20483;-67
2024/01/03 08:01:33;;;;;;;6.57;0.90;;;9.50;99.90;;;;;;4963692;28;20479;-67
2024/01/03 08:04:01;;;;;;;6.60;0.57;;;9.70;99.90;;;;;;4963987;28;20483;-67
2024/01/03 08:06:29;;;;;;;7.20;1.30;;;9.70;99.90;;;;;;4960271;28;20509;-66
2024/01/03 08:08:58;;;;;;;7.27;1.00;;;9.70;99.90;;;;;;4974501;28;20522;-67
2024/01/03 08:11:27;;;;;;;6.50;0.90;;;9.70;99.90;;;;;;4976268;28;20507;-67
2024/01/03 08:13:55;;;;;;;6.50;0.50;;;9.70;99.90;;;;;;4982469;28;20453;-66
2024/01/03 08:16:23;;;;;;;7.00;0.90;;;9.70;99.90;;;;;;4984079;28;20451;-67
2024/01/03 08:18:50;;;;;;;8.50;1.30;;;9.70;99.90;;;;;;4963387;28;20518;-67
2024/01/03 08:21:20;;;;;;;8.67;0.97;;;9.70;99.90;;;;;;4962459;28;20466;-66
2024/01/03 08:23:48;;;;;;;8.60;1.20;;;9.60;99.90;;;;;;4961975;28;20471;-66
2024/01/03 08:26:20;;;;;;;7.70;1.13;;;9.70;99.90;;;;;;4958348;28;20559;-66
2024/01/03 08:28:48;;;;;;;8.37;1.23;;;9.80;99.90;;;;;;4962408;28;20820;-66
2024/01/03 08:31:17;;;;;;;6.30;0.80;;;9.80;99.90;;;;;;4961971;28;20476;-66
2024/01/03 08:33:46;;;;;;;6.30;0.63;;;9.80;99.90;;;;;;4967662;28;20443;-65
2024/01/03 08:36:16;;;;;;;6.97;0.83;;;10.00;99.90;;;;;;4968269;28;20448;-67
2024/01/03 08:38:44;;;;;;;11.20;1.00;;;10.10;99.90;;;;;;4955752;28;20451;-66
2024/01/03 08:41:16;;;;;;;6.60;0.80;;;10.20;99.90;;;;;;4965287;28;20457;-66
2024/01/03 08:43:46;;;;;;;5.80;0.50;;;10.30;99.90;;;;;;4968049;28;20542;-65
2024/01/03 08:46:14;;;;;;;8.07;0.90;;;10.40;99.90;;;;;;4968753;28;21154;-66
2024/01/03 08:48:42;;;;;;;6.97;0.80;;;10.50;99.90;;;;;;4971231;28;20924;-66
2024/01/03 08:51:13;;;;;;;6.80;0.57;;;10.60;99.90;;;;;;4987235;28;21000;-75
2024/01/03 08:53:41;;;;;;;8.40;0.80;;;10.70;99.90;;;;;;4969841;28;20450;-66
2024/01/03 08:56:13;;;;;;;7.20;0.83;;;10.70;99.90;;;;;;4969582;28;20451;-67
2024/01/03 08:58:44;;;;;;;6.50;0.50;;;10.70;99.90;;;;;;4964134;28;21084;-67
2024/01/03 09:01:16;;;;;;;6.67;1.07;;;10.70;99.90;;;;;;4984750;28;20548;-67
2024/01/03 09:03:44;;;;;;;6.10;0.70;;;10.60;99.90;;;;;;4977563;28;20435;-66
2024/01/03 09:06:14;;;;;;;6.20;0.70;;;10.70;99.90;;;;;;4960238;28;21355;-67
2024/01/03 09:08:42;;;;;;;11.37;1.07;;;10.70;99.90;;;;;;4973328;28;20436;-66
2024/01/03 09:11:11;;;;;;;6.07;0.60;;;10.70;99.90;;;;;;4977777;28;20450;-66
2024/01/03 09:13:39;;;;;;;6.40;0.87;;;10.70;99.90;;;;;;4968044;28;20467;-66
2024/01/03 09:16:10;;;;;;;7.57;0.90;;;10.70;99.90;;;;;;4976187;28;20534;-67
2024/01/03 09:18:38;;;;;;;9.97;1.10;;;10.70;99.90;;;;;;4965037;28;20541;-66
2024/01/03 09:21:06;;;;;;;6.40;0.60;;;10.70;99.90;;;;;;4964188;28;20551;-67
2024/01/03 09:23:34;;;;;;;7.30;0.67;;;10.70;99.90;;;;;;4985843;28;20453;-66
2024/01/03 09:26:04;;;;;;;9.17;1.90;;;10.60;99.90;;;;;;4974359;28;20490;-66
2024/01/03 09:28:34;;;;;;;7.97;0.83;;;10.60;99.90;;;;;;4968513;28;20555;-66
2024/01/03 09:31:02;;;;;;;5.80;0.60;;;10.70;99.90;;;;;;4960647;28;20527;-66
2024/01/03 09:33:32;;;;;;;6.20;0.70;;;10.80;99.90;;;;;;4963814;28;20449;-66
2024/01/03 09:36:00;;;;;;;6.43;0.70;;;10.80;99.90;;;;;;4977516;28;20447;-67
2024/01/03 09:38:29;;;;;;;8.10;0.90;;;10.90;99.90;;;;;;4980676;28;20452;-67
2024/01/03 09:40:59;;;;;;;5.83;0.60;;;11.10;99.90;;;;;;4983244;28;20526;-67
2024/01/03 09:43:27;;;;;;;7.07;0.60;;;11.10;99.90;;;;;;4982876;28;20459;-66
2024/01/03 09:45:57;;;;;;;6.63;0.50;;;11.20;99.90;;;;;;4993722;28;21015;-66
2024/01/03 09:48:25;;;;;;;5.70;0.40;;;11.20;99.90;;;;;;4972661;28;20481;-67
2024/01/03 09:50:55;;;;;;;6.20;1.00;;;11.20;99.90;;;;;;4967310;28;20474;-67
2024/01/03 09:53:24;;;;;;;7.90;0.50;;;11.20;99.90;;;;;;4971690;28;20468;-67
2024/01/03 09:55:53;;;;;;;10.50;0.80;;;11.20;99.90;;;;;;4968695;28;20430;-67
2024/01/03 09:58:24;;;;;;;8.03;0.70;;;11.10;99.90;;;;;;4978846;28;20455;-67
2024/01/03 10:00:52;;;;;;;6.30;0.53;;;11.00;99.90;;;;;;4976681;28;20494;-68
2024/01/03 10:03:20;;;;;;;6.03;0.60;;;10.90;99.90;;;;;;4973984;28;20458;-67
2024/01/03 10:06:06;;;;;;;6.50;0.50;;;11.00;99.90;;;;;;4973747;28;20474;-68
2024/01/03 10:08:35;;;;;;;6.77;1.13;;;11.20;99.90;;;;;;4973237;28;20454;-67
2024/01/03 10:11:19;;;;;;;6.20;0.50;;;11.40;99.90;;;;;;4973995;28;20443;-67
2024/01/03 10:13:50;;;;;;;6.63;0.60;;;11.30;99.90;;;;;;4972671;28;20527;-66
2024/01/03 10:16:25;;;;;;;6.07;0.67;;;11.30;99.90;;;;;;4964853;28;20654;-67
2024/01/03 10:19:10;;;;;;;6.50;0.50;;;11.40;99.90;;;;;;4974348;28;20442;-67
2024/01/03 10:21:47;;;;;;;7.27;0.63;;;11.40;99.90;;;;;;4968388;28;20598;-68
2024/01/03 10:24:16;;;;;;;6.63;0.60;;;11.70;99.90;;;;;;4970625;28;20498;-67
2024/01/03 10:26:45;;;;;;;6.60;0.70;;;11.80;99.90;;;;;;4963850;28;20897;-67
2024/01/03 10:29:14;;;;;;;6.53;0.63;;;11.70;99.90;;;;;;4978858;28;20451;-67
2024/01/03 10:31:43;;;;;;;6.30;0.40;;;11.60;99.90;;;;;;4981197;28;20458;-67
2024/01/03 10:34:15;;;;;;;6.10;0.53;;;11.30;99.90;;;;;;4977907;28;20864;-67
2024/01/03 10:36:46;;;;;;;6.10;0.60;;;11.00;99.90;;;;;;4967610;28;20447;-67
2024/01/03 10:39:17;;;;;;;6.40;0.70;;;10.90;99.90;;;;;;4968560;28;20869;-67
2024/01/03 10:41:46;;;;;;;6.43;0.60;;;10.90;99.90;;;;;;4962845;28;20497;-67
2024/01/03 10:44:16;;;;;;;8.33;1.00;;;11.30;99.90;;;;;;4970751;28;20483;-66
2024/01/03 10:46:44;;;;;;;6.23;0.73;;;11.70;99.90;;;;;;4967315;28;20445;-66
2024/01/03 10:49:13;;;;;;;8.60;0.80;;;11.80;99.90;;;;;;4963122;28;20446;-67
2024/01/03 10:51:43;;;;;;;6.90;1.00;;;11.90;99.90;;;;;;4966173;28;20460;-67
2024/01/03 10:54:18;;;;;;;8.57;0.90;;;11.90;99.90;;;;;;4963796;28;20442;-67
2024/01/03 10:56:48;;;;;;;6.40;0.60;;;11.90;99.90;;;;;;4969074;28;20449;-67
2024/01/03 10:59:18;;;;;;;6.00;0.50;;;11.80;99.90;;;;;;4969812;28;20451;-67
2024/01/03 11:01:52;;;;;;;6.43;0.80;;;11.80;99.90;;;;;;4963568;28;20494;-67
2024/01/03 11:04:26;;;;;;;7.23;0.90;;;11.70;99.90;;;;;;4970412;28;20878;-67
2024/01/03 11:07:06;;;;;;;6.10;0.80;;;11.70;99.90;;;;;;4968289;28;20442;-67
2024/01/03 11:09:35;;;;;;;7.40;0.97;;;11.60;99.90;;;;;;4969810;28;21045;-67
2024/01/03 11:12:08;;;;;;;6.13;0.67;;;11.60;99.90;;;;;;4972559;28;20992;-68
2024/01/03 11:14:37;;;;;;;6.33;0.60;;;11.70;99.90;;;;;;4972040;28;20523;-67
2024/01/03 11:17:06;;;;;;;9.00;0.80;;;11.80;99.90;;;;;;4973019;28;20936;-67
2024/01/03 11:19:37;;;;;;;7.40;0.67;;;11.80;99.90;;;;;;4965679;28;20449;-68
2024/01/03 11:22:06;;;;;;;6.30;0.63;;;12.00;99.90;;;;;;4965045;28;20490;-69
2024/01/03 11:24:53;;;;;;;6.27;0.60;;;12.20;99.90;;;;;;4963729;28;20560;-67
2024/01/03 11:27:25;;;;;;;6.30;0.63;;;12.20;99.90;;;;;;4964591;28;20449;-68
2024/01/03 11:29:55;;;;;;;5.90;0.70;;;12.00;99.90;;;;;;4969219;28;20449;-69
2024/01/03 11:32:36;;;;;;;7.37;0.80;;;12.10;99.90;;;;;;4966040;28;20469;-69
2024/01/03 11:35:09;;;;;;;6.20;0.50;;;12.10;99.90;;;;;;4968161;28;20453;-68
2024/01/03 11:37:39;;;;;;;6.50;0.60;;;12.00;99.90;;;;;;4970364;28;20536;-69
2024/01/03 11:40:20;;;;;;;6.50;0.67;;;12.00;99.90;;;;;;4972085;28;20463;-68
2024/01/03 11:42:57;;;;;;;8.30;0.87;;;12.00;99.90;;;;;;4964987;28;20974;-68
2024/01/03 11:45:26;;;;;;;6.50;0.70;;;12.10;99.90;;;;;;4971111;28;20447;-68
2024/01/03 11:47:57;;;;;;;7.73;0.70;;;12.20;99.90;;;;;;4967827;28;20480;-68
2024/01/03 11:50:32;;;;;;;7.30;0.90;;;12.20;99.90;;;;;;4971322;28;20528;-69
2024/01/03 11:53:09;;;;;;;6.80;0.60;;;12.30;99.90;;;;;;4966449;28;20538;-69
2024/01/03 11:55:49;;;;;;;6.77;0.80;;;12.30;99.90;;;;;;4966007;28;20451;-68
2024/01/03 11:58:17;;;;;;;7.33;0.77;;;12.40;99.90;;;;;;4965869;28;20564;-68
2024/01/03 12:00:46;;;;;;;6.10;0.60;;;12.40;99.90;;;;;;4970931;28;20488;-68
2024/01/03 12:03:19;;;;;;;7.40;0.43;;;12.60;99.90;;;;;;4969815;28;20474;-67
2024/01/03 12:05:47;;;;;;;6.80;0.60;;;12.90;99.90;;;;;;4967180;28;20445;-68
2024/01/03 12:08:15;;;;;;;8.87;1.23;;;13.10;99.90;;;;;;4980396;28;20455;-69
2024/01/03 12:10:44;;;;;;;9.20;0.53;;;13.30;99.90;;;;;;4990606;28;20446;-69
2024/01/03 12:13:15;;;;;;;7.70;0.70;;;13.30;99.90;;;;;;4983501;28;20479;-69
2024/01/03 12:15:43;;;;;;;7.03;0.83;;;13.10;99.90;;;;;;4992843;28;20474;-68
2024/01/03 12:18:22;;;;;;;7.03;0.80;;;13.00;99.90;;;;;;4992958;28;20462;-69
2024/01/03 12:20:51;;;;;;;6.47;0.60;;;13.00;99.90;;;;;;4981068;28;20437;-68
2024/01/03 12:23:20;;;;;;;6.80;0.60;;;13.10;99.90;;;;;;4968831;28;20475;-68
2024/01/03 12:25:49;;;;;;;8.20;0.80;;;13.10;99.90;;;;;;4982989;28;20443;-68
2024/01/03 12:28:22;;;;;;;8.40;0.83;;;13.00;99.90;;;;;;4976738;28;20455;-67
2024/01/03 12:30:51;;;;;;;6.67;0.80;;;12.90;99.90;;;;;;4973740;28;20451;-68
2024/01/03 12:33:20;;;;;;;7.83;0.90;;;12.90;99.90;;;;;;4973496;28;20467;-69
2024/01/03 12:35:48;;;;;;;7.10;0.80;;;13.10;99.90;;;;;;4969532;28;20451;-69
2024/01/03 12:38:16;;;;;;;6.57;0.53;;;13.20;99.90;;;;;;4968932;28;20451;-69
2024/01/03 12:40:44;;;;;;;8.57;0.87;;;13.10;99.90;;;;;;4965497;28;20445;-68
2024/01/03 12:43:14;;;;;;;6.47;0.70;;;13.00;99.90;;;;;;4967931;28;20465;-68
2024/01/03 12:45:47;;;;;;;7.53;0.70;;;12.80;99.90;;;;;;4969489;28;20472;-69
2024/01/03 12:48:15;;;;;;;6.37;0.70;;;12.80;99.90;;;;;;4967970;28;20896;-68
2024/01/03 12:50:44;;;;;;;5.90;0.53;;;12.80;99.90;;;;;;4967616;28;20961;-69
2024/01/03 12:53:13;;;;;;;8.73;0.77;;;12.60;99.90;;;;;;4973606;28;20533;-69
2024/01/03 12:55:41;;;;;;;9.03;0.53;;;12.50;99.90;;;;;;4982495;28;20530;-68
2024/01/03 12:58:09;;;;;;;6.57;0.50;;;12.30;99.90;;;;;;4964987;28;20447;-69
2024/01/03 13:00:38;;;;;;;6.43;0.50;;;12.10;99.90;;;;;;4967453;28;20537;-68
2024/01/03 13:03:07;;;;;;;6.10;0.70;;;12.00;99.90;;;;;;4968677;28;20555;-69